sensor_id;sensor_type;location;lat;lon;timestamp;P1;durP1;ratioP1;P2;durP2;ratioP2
77085;SDS011;66014;53.134;18.006;2023-05-07T00:00:08;14.50;;;8.90;;
77085;SDS011;66014;53.134;18.006;2023-05-07T00:02:55;14.30;;;8.10;;
77085;SDS011;66014;53.134;18.006;2023-05-07T00:05:24;18.40;;;8.80;;
77085;SDS011;66014;53.134;18.006;2023-05-07T00:07:50;13.50;;;8.00;;
77085;SDS011;66014;53.134;18.006;2023-05-07T00:10:18;13.60;;;8.80;;
77085;SDS011;66014;53.134;18.006;2023-05-07T00:12:47;13.20;;;7.80;;
77085;SDS011;66014;53.134;18.006;2023-05-07T00:15:13;18.30;;;9.60;;
77085;SDS011;66014;53.134;18.006;2023-05-07T00:17:40;18.00;;;9.30;;
77085;SDS011;66014;53.134;18.006;2023-05-07T00:20:06;15.00;;;9.10;;
77085;SDS011;66014;53.134;18.006;2023-05-07T00:22:35;16.50;;;9.40;;
77085;SDS011;66014;53.134;18.006;2023-05-07T00:25:01;16.70;;;8.70;;
77085;SDS011;66014;53.134;18.006;2023-05-07T00:27:28;16.40;;;9.20;;
77085;SDS011;66014;53.134;18.006;2023-05-07T00:29:55;16.90;;;9.40;;
77085;SDS011;66014;53.134;18.006;2023-05-07T00:32:21;16.20;;;8.70;;
77085;SDS011;66014;53.134;18.006;2023-05-07T00:34:49;19.50;;;9.00;;
77085;SDS011;66014;53.134;18.006;2023-05-07T00:37:17;13.90;;;8.50;;
77085;SDS011;66014;53.134;18.006;2023-05-07T00:39:43;15.00;;;8.20;;
77085;SDS011;66014;53.134;18.006;2023-05-07T00:42:10;14.50;;;9.30;;
77085;SDS011;66014;53.134;18.006;2023-05-07T00:44:36;14.60;;;8.90;;
77085;SDS011;66014;53.134;18.006;2023-05-07T00:47:03;14.60;;;7.70;;
77085;SDS011;66014;53.134;18.006;2023-05-07T00:49:38;13.40;;;8.30;;
77085;SDS011;66014;53.134;18.006;2023-05-07T00:52:08;16.90;;;9.30;;
77085;SDS011;66014;53.134;18.006;2023-05-07T00:54:37;15.90;;;9.20;;
77085;SDS011;66014;53.134;18.006;2023-05-07T00:57:04;16.70;;;9.20;;
77085;SDS011;66014;53.134;18.006;2023-05-07T00:59:32;18.50;;;9.60;;
77085;SDS011;66014;53.134;18.006;2023-05-07T01:01:59;18.10;;;10.40;;
77085;SDS011;66014;53.134;18.006;2023-05-07T01:04:26;24.70;;;11.70;;
77085;SDS011;66014;53.134;18.006;2023-05-07T01:06:54;23.20;;;12.20;;
77085;SDS011;66014;53.134;18.006;2023-05-07T01:09:25;24.00;;;12.60;;
77085;SDS011;66014;53.134;18.006;2023-05-07T01:11:53;20.60;;;11.80;;
77085;SDS011;66014;53.134;18.006;2023-05-07T01:14:20;19.60;;;10.60;;
77085;SDS011;66014;53.134;18.006;2023-05-07T01:16:47;19.60;;;10.10;;
77085;SDS011;66014;53.134;18.006;2023-05-07T01:19:17;21.10;;;10.90;;
77085;SDS011;66014;53.134;18.006;2023-05-07T01:21:45;19.70;;;11.00;;
77085;SDS011;66014;53.134;18.006;2023-05-07T01:24:14;25.40;;;11.90;;
77085;SDS011;66014;53.134;18.006;2023-05-07T01:26:41;19.40;;;10.90;;
77085;SDS011;66014;53.134;18.006;2023-05-07T01:29:09;20.60;;;10.60;;
77085;SDS011;66014;53.134;18.006;2023-05-07T01:31:36;18.50;;;10.00;;
77085;SDS011;66014;53.134;18.006;2023-05-07T01:34:04;20.10;;;11.20;;
77085;SDS011;66014;53.134;18.006;2023-05-07T01:36:33;20.20;;;10.30;;
77085;SDS011;66014;53.134;18.006;2023-05-07T01:39:01;16.10;;;9.60;;
77085;SDS011;66014;53.134;18.006;2023-05-07T01:41:28;18.00;;;10.10;;
77085;SDS011;66014;53.134;18.006;2023-05-07T01:43:54;16.20;;;9.30;;
77085;SDS011;66014;53.134;18.006;2023-05-07T01:46:24;16.40;;;10.40;;
77085;SDS011;66014;53.134;18.006;2023-05-07T01:48:52;17.90;;;9.80;;
77085;SDS011;66014;53.134;18.006;2023-05-07T01:51:19;20.20;;;12.50;;
77085;SDS011;66014;53.134;18.006;2023-05-07T01:53:47;19.10;;;11.10;;
77085;SDS011;66014;53.134;18.006;2023-05-07T01:56:17;19.60;;;10.30;;
77085;SDS011;66014;53.134;18.006;2023-05-07T01:58:46;17.90;;;10.20;;
77085;SDS011;66014;53.134;18.006;2023-05-07T02:01:13;18.70;;;11.70;;
77085;SDS011;66014;53.134;18.006;2023-05-07T02:03:40;20.70;;;11.30;;
77085;SDS011;66014;53.134;18.006;2023-05-07T02:06:06;20.00;;;10.90;;
77085;SDS011;66014;53.134;18.006;2023-05-07T02:08:33;17.70;;;10.00;;
77085;SDS011;66014;53.134;18.006;2023-05-07T02:11:00;18.30;;;10.00;;
77085;SDS011;66014;53.134;18.006;2023-05-07T02:13:31;16.60;;;10.60;;
77085;SDS011;66014;53.134;18.006;2023-05-07T02:15:59;15.90;;;9.50;;
77085;SDS011;66014;53.134;18.006;2023-05-07T02:18:25;18.20;;;10.10;;
77085;SDS011;66014;53.134;18.006;2023-05-07T02:20:52;18.90;;;11.10;;
77085;SDS011;66014;53.134;18.006;2023-05-07T02:23:19;20.00;;;10.30;;
77085;SDS011;66014;53.134;18.006;2023-05-07T02:25:45;16.10;;;9.70;;
77085;SDS011;66014;53.134;18.006;2023-05-07T02:28:12;17.80;;;10.10;;
77085;SDS011;66014;53.134;18.006;2023-05-07T02:30:39;17.40;;;10.10;;
77085;SDS011;66014;53.134;18.006;2023-05-07T02:33:06;17.40;;;8.80;;
77085;SDS011;66014;53.134;18.006;2023-05-07T02:35:34;17.20;;;9.60;;
77085;SDS011;66014;53.134;18.006;2023-05-07T02:38:01;16.40;;;9.40;;
77085;SDS011;66014;53.134;18.006;2023-05-07T02:40:27;18.70;;;10.10;;
77085;SDS011;66014;53.134;18.006;2023-05-07T02:42:54;17.10;;;9.40;;
77085;SDS011;66014;53.134;18.006;2023-05-07T02:45:20;16.50;;;9.40;;
77085;SDS011;66014;53.134;18.006;2023-05-07T02:47:47;19.20;;;10.30;;
77085;SDS011;66014;53.134;18.006;2023-05-07T02:50:13;19.70;;;10.60;;
77085;SDS011;66014;53.134;18.006;2023-05-07T02:52:40;18.70;;;10.90;;
77085;SDS011;66014;53.134;18.006;2023-05-07T02:55:07;20.70;;;9.90;;
77085;SDS011;66014;53.134;18.006;2023-05-07T02:57:34;17.30;;;9.60;;
77085;SDS011;66014;53.134;18.006;2023-05-07T03:00:09;19.20;;;10.30;;
77085;SDS011;66014;53.134;18.006;2023-05-07T03:02:37;16.60;;;10.40;;
77085;SDS011;66014;53.134;18.006;2023-05-07T03:05:04;18.50;;;9.60;;
77085;SDS011;66014;53.134;18.006;2023-05-07T03:07:31;18.70;;;9.60;;
77085;SDS011;66014;53.134;18.006;2023-05-07T03:09:59;18.90;;;10.60;;
77085;SDS011;66014;53.134;18.006;2023-05-07T03:12:26;18.40;;;10.60;;
77085;SDS011;66014;53.134;18.006;2023-05-07T03:14:52;19.10;;;11.70;;
77085;SDS011;66014;53.134;18.006;2023-05-07T03:17:20;22.30;;;11.00;;
77085;SDS011;66014;53.134;18.006;2023-05-07T03:19:47;23.40;;;10.90;;
77085;SDS011;66014;53.134;18.006;2023-05-07T03:22:13;18.80;;;11.60;;
77085;SDS011;66014;53.134;18.006;2023-05-07T03:24:40;20.80;;;11.80;;
77085;SDS011;66014;53.134;18.006;2023-05-07T03:27:07;22.10;;;11.60;;
77085;SDS011;66014;53.134;18.006;2023-05-07T03:29:33;19.90;;;12.00;;
77085;SDS011;66014;53.134;18.006;2023-05-07T03:32:00;22.80;;;12.40;;
77085;SDS011;66014;53.134;18.006;2023-05-07T03:34:27;19.30;;;10.40;;
77085;SDS011;66014;53.134;18.006;2023-05-07T03:36:53;18.80;;;11.20;;
77085;SDS011;66014;53.134;18.006;2023-05-07T03:39:20;19.10;;;11.00;;
77085;SDS011;66014;53.134;18.006;2023-05-07T03:41:46;19.30;;;10.60;;
77085;SDS011;66014;53.134;18.006;2023-05-07T03:44:13;21.90;;;11.20;;
77085;SDS011;66014;53.134;18.006;2023-05-07T03:46:39;22.30;;;12.00;;
77085;SDS011;66014;53.134;18.006;2023-05-07T03:49:06;19.70;;;11.20;;
77085;SDS011;66014;53.134;18.006;2023-05-07T03:51:32;18.90;;;10.50;;
77085;SDS011;66014;53.134;18.006;2023-05-07T03:53:59;19.30;;;11.30;;
77085;SDS011;66014;53.134;18.006;2023-05-07T03:56:26;18.00;;;12.60;;
77085;SDS011;66014;53.134;18.006;2023-05-07T03:58:53;21.00;;;12.70;;
77085;SDS011;66014;53.134;18.006;2023-05-07T04:01:20;38.20;;;23.30;;
77085;SDS011;66014;53.134;18.006;2023-05-07T04:03:47;39.10;;;25.00;;
77085;SDS011;66014;53.134;18.006;2023-05-07T04:06:15;32.20;;;19.00;;
77085;SDS011;66014;53.134;18.006;2023-05-07T04:08:42;30.00;;;17.60;;
77085;SDS011;66014;53.134;18.006;2023-05-07T04:11:10;26.20;;;16.10;;
77085;SDS011;66014;53.134;18.006;2023-05-07T04:13:36;23.80;;;13.00;;
77085;SDS011;66014;53.134;18.006;2023-05-07T04:16:03;19.70;;;12.30;;
77085;SDS011;66014;53.134;18.006;2023-05-07T04:18:31;20.30;;;11.50;;
77085;SDS011;66014;53.134;18.006;2023-05-07T04:20:59;19.20;;;10.80;;
77085;SDS011;66014;53.134;18.006;2023-05-07T04:23:26;19.50;;;11.00;;
77085;SDS011;66014;53.134;18.006;2023-05-07T04:25:52;20.40;;;11.00;;
77085;SDS011;66014;53.134;18.006;2023-05-07T04:28:20;22.30;;;11.50;;
77085;SDS011;66014;53.134;18.006;2023-05-07T04:30:47;20.20;;;11.40;;
77085;SDS011;66014;53.134;18.006;2023-05-07T04:33:14;23.80;;;12.20;;
77085;SDS011;66014;53.134;18.006;2023-05-07T04:35:43;21.30;;;12.30;;
77085;SDS011;66014;53.134;18.006;2023-05-07T04:38:09;21.60;;;13.10;;
77085;SDS011;66014;53.134;18.006;2023-05-07T04:40:36;23.40;;;12.50;;
77085;SDS011;66014;53.134;18.006;2023-05-07T04:43:03;23.00;;;12.00;;
77085;SDS011;66014;53.134;18.006;2023-05-07T04:45:29;21.30;;;12.10;;
77085;SDS011;66014;53.134;18.006;2023-05-07T04:47:56;20.20;;;12.30;;
77085;SDS011;66014;53.134;18.006;2023-05-07T04:50:22;20.40;;;12.10;;
77085;SDS011;66014;53.134;18.006;2023-05-07T04:52:50;21.10;;;11.70;;
77085;SDS011;66014;53.134;18.006;2023-05-07T04:55:17;22.50;;;12.40;;
77085;SDS011;66014;53.134;18.006;2023-05-07T04:57:43;26.50;;;12.40;;
77085;SDS011;66014;53.134;18.006;2023-05-07T05:00:10;18.20;;;11.20;;
77085;SDS011;66014;53.134;18.006;2023-05-07T05:02:40;19.10;;;11.20;;
77085;SDS011;66014;53.134;18.006;2023-05-07T05:05:07;18.30;;;11.10;;
77085;SDS011;66014;53.134;18.006;2023-05-07T05:07:34;20.20;;;11.10;;
77085;SDS011;66014;53.134;18.006;2023-05-07T05:10:01;19.30;;;10.90;;
77085;SDS011;66014;53.134;18.006;2023-05-07T05:12:29;20.60;;;11.50;;
77085;SDS011;66014;53.134;18.006;2023-05-07T05:14:56;20.70;;;11.20;;
77085;SDS011;66014;53.134;18.006;2023-05-07T05:17:23;18.20;;;10.50;;
77085;SDS011;66014;53.134;18.006;2023-05-07T05:19:50;17.60;;;10.80;;
77085;SDS011;66014;53.134;18.006;2023-05-07T05:22:17;20.50;;;12.00;;
77085;SDS011;66014;53.134;18.006;2023-05-07T05:24:44;20.70;;;11.70;;
77085;SDS011;66014;53.134;18.006;2023-05-07T05:27:10;17.70;;;11.30;;
77085;SDS011;66014;53.134;18.006;2023-05-07T05:29:37;17.00;;;10.60;;
77085;SDS011;66014;53.134;18.006;2023-05-07T05:32:03;20.20;;;11.50;;
77085;SDS011;66014;53.134;18.006;2023-05-07T05:34:30;19.50;;;10.20;;
77085;SDS011;66014;53.134;18.006;2023-05-07T05:36:57;17.70;;;10.30;;
77085;SDS011;66014;53.134;18.006;2023-05-07T05:39:25;17.30;;;10.90;;
77085;SDS011;66014;53.134;18.006;2023-05-07T05:41:51;19.00;;;10.80;;
77085;SDS011;66014;53.134;18.006;2023-05-07T05:44:18;20.80;;;11.20;;
77085;SDS011;66014;53.134;18.006;2023-05-07T05:46:45;17.30;;;10.70;;
77085;SDS011;66014;53.134;18.006;2023-05-07T05:49:12;15.60;;;9.50;;
77085;SDS011;66014;53.134;18.006;2023-05-07T05:51:39;16.30;;;9.30;;
77085;SDS011;66014;53.134;18.006;2023-05-07T05:54:06;18.00;;;10.00;;
77085;SDS011;66014;53.134;18.006;2023-05-07T05:56:33;16.70;;;9.50;;
77085;SDS011;66014;53.134;18.006;2023-05-07T05:58:59;14.50;;;9.60;;
77085;SDS011;66014;53.134;18.006;2023-05-07T06:01:26;14.60;;;9.20;;
77085;SDS011;66014;53.134;18.006;2023-05-07T06:03:52;16.40;;;9.00;;
77085;SDS011;66014;53.134;18.006;2023-05-07T06:06:19;14.50;;;9.10;;
77085;SDS011;66014;53.134;18.006;2023-05-07T06:08:45;14.30;;;8.80;;
77085;SDS011;66014;53.134;18.006;2023-05-07T06:11:12;13.30;;;8.30;;
77085;SDS011;66014;53.134;18.006;2023-05-07T06:13:39;13.40;;;8.40;;
77085;SDS011;66014;53.134;18.006;2023-05-07T06:16:06;11.80;;;8.30;;
77085;SDS011;66014;53.134;18.006;2023-05-07T06:18:34;11.20;;;8.00;;
77085;SDS011;66014;53.134;18.006;2023-05-07T06:21:02;11.30;;;7.30;;
77085;SDS011;66014;53.134;18.006;2023-05-07T06:23:28;11.70;;;7.00;;
77085;SDS011;66014;53.134;18.006;2023-05-07T06:25:55;11.10;;;6.50;;
77085;SDS011;66014;53.134;18.006;2023-05-07T06:28:22;9.70;;;6.10;;
77085;SDS011;66014;53.134;18.006;2023-05-07T06:30:48;11.90;;;5.90;;
77085;SDS011;66014;53.134;18.006;2023-05-07T06:33:16;10.10;;;5.30;;
77085;SDS011;66014;53.134;18.006;2023-05-07T06:35:42;8.50;;;5.60;;
77085;SDS011;66014;53.134;18.006;2023-05-07T06:38:09;8.20;;;5.40;;
77085;SDS011;66014;53.134;18.006;2023-05-07T06:40:35;7.90;;;5.40;;
77085;SDS011;66014;53.134;18.006;2023-05-07T06:43:02;9.40;;;5.70;;
77085;SDS011;66014;53.134;18.006;2023-05-07T06:45:29;8.90;;;5.00;;
77085;SDS011;66014;53.134;18.006;2023-05-07T06:47:57;8.40;;;5.00;;
77085;SDS011;66014;53.134;18.006;2023-05-07T06:50:23;8.70;;;4.90;;
77085;SDS011;66014;53.134;18.006;2023-05-07T06:52:50;10.00;;;5.80;;
77085;SDS011;66014;53.134;18.006;2023-05-07T06:55:17;7.90;;;5.20;;
77085;SDS011;66014;53.134;18.006;2023-05-07T06:57:43;7.10;;;4.80;;
77085;SDS011;66014;53.134;18.006;2023-05-07T07:00:10;7.40;;;4.40;;
77085;SDS011;66014;53.134;18.006;2023-05-07T07:02:37;6.20;;;3.90;;
77085;SDS011;66014;53.134;18.006;2023-05-07T07:05:03;7.00;;;4.30;;
77085;SDS011;66014;53.134;18.006;2023-05-07T07:07:30;8.60;;;4.50;;
77085;SDS011;66014;53.134;18.006;2023-05-07T07:09:57;7.10;;;4.80;;
77085;SDS011;66014;53.134;18.006;2023-05-07T07:12:23;8.90;;;4.50;;
77085;SDS011;66014;53.134;18.006;2023-05-07T07:14:54;6.70;;;4.70;;
77085;SDS011;66014;53.134;18.006;2023-05-07T07:17:21;6.50;;;4.40;;
77085;SDS011;66014;53.134;18.006;2023-05-07T07:19:48;6.60;;;4.00;;
77085;SDS011;66014;53.134;18.006;2023-05-07T07:22:15;8.70;;;4.60;;
77085;SDS011;66014;53.134;18.006;2023-05-07T07:24:41;7.30;;;4.20;;
77085;SDS011;66014;53.134;18.006;2023-05-07T07:27:08;9.00;;;4.50;;
77085;SDS011;66014;53.134;18.006;2023-05-07T07:29:34;7.50;;;4.70;;
77085;SDS011;66014;53.134;18.006;2023-05-07T07:32:01;7.50;;;5.20;;
77085;SDS011;66014;53.134;18.006;2023-05-07T07:34:27;9.70;;;4.90;;
77085;SDS011;66014;53.134;18.006;2023-05-07T07:36:54;7.50;;;4.80;;
77085;SDS011;66014;53.134;18.006;2023-05-07T07:39:21;10.40;;;5.60;;
77085;SDS011;66014;53.134;18.006;2023-05-07T07:41:47;7.70;;;4.70;;
77085;SDS011;66014;53.134;18.006;2023-05-07T07:44:14;6.60;;;3.90;;
77085;SDS011;66014;53.134;18.006;2023-05-07T07:46:40;5.40;;;4.00;;
77085;SDS011;66014;53.134;18.006;2023-05-07T07:49:07;6.50;;;4.40;;
77085;SDS011;66014;53.134;18.006;2023-05-07T07:51:33;5.80;;;3.80;;
77085;SDS011;66014;53.134;18.006;2023-05-07T07:54:00;6.80;;;4.40;;
77085;SDS011;66014;53.134;18.006;2023-05-07T07:56:28;7.50;;;3.60;;
77085;SDS011;66014;53.134;18.006;2023-05-07T07:58:55;5.90;;;3.50;;
77085;SDS011;66014;53.134;18.006;2023-05-07T08:01:21;4.80;;;3.30;;
77085;SDS011;66014;53.134;18.006;2023-05-07T08:03:48;4.90;;;2.90;;
77085;SDS011;66014;53.134;18.006;2023-05-07T08:06:14;6.20;;;3.40;;
77085;SDS011;66014;53.134;18.006;2023-05-07T08:08:41;5.40;;;3.30;;
77085;SDS011;66014;53.134;18.006;2023-05-07T08:11:08;5.80;;;2.80;;
77085;SDS011;66014;53.134;18.006;2023-05-07T08:13:34;5.20;;;3.10;;
77085;SDS011;66014;53.134;18.006;2023-05-07T08:16:01;4.50;;;2.80;;
77085;SDS011;66014;53.134;18.006;2023-05-07T08:18:28;4.90;;;2.80;;
77085;SDS011;66014;53.134;18.006;2023-05-07T08:20:55;6.60;;;3.20;;
77085;SDS011;66014;53.134;18.006;2023-05-07T08:23:22;5.40;;;2.70;;
77085;SDS011;66014;53.134;18.006;2023-05-07T08:25:51;5.40;;;2.30;;
77085;SDS011;66014;53.134;18.006;2023-05-07T08:28:18;4.40;;;2.70;;
77085;SDS011;66014;53.134;18.006;2023-05-07T08:30:46;6.10;;;2.70;;
77085;SDS011;66014;53.134;18.006;2023-05-07T08:33:12;3.40;;;2.20;;
77085;SDS011;66014;53.134;18.006;2023-05-07T08:35:39;4.30;;;2.30;;
77085;SDS011;66014;53.134;18.006;2023-05-07T08:38:06;3.00;;;2.10;;
77085;SDS011;66014;53.134;18.006;2023-05-07T08:40:35;4.40;;;2.00;;
77085;SDS011;66014;53.134;18.006;2023-05-07T08:43:07;2.90;;;2.00;;
77085;SDS011;66014;53.134;18.006;2023-05-07T08:45:34;5.10;;;2.30;;
77085;SDS011;66014;53.134;18.006;2023-05-07T08:48:02;5.90;;;2.60;;
77085;SDS011;66014;53.134;18.006;2023-05-07T08:50:31;4.60;;;2.50;;
77085;SDS011;66014;53.134;18.006;2023-05-07T08:53:05;3.80;;;2.10;;
77085;SDS011;66014;53.134;18.006;2023-05-07T08:55:34;5.90;;;2.80;;
77085;SDS011;66014;53.134;18.006;2023-05-07T08:58:01;4.50;;;2.50;;
77085;SDS011;66014;53.134;18.006;2023-05-07T09:00:28;5.60;;;3.30;;
77085;SDS011;66014;53.134;18.006;2023-05-07T09:02:54;5.60;;;3.50;;
77085;SDS011;66014;53.134;18.006;2023-05-07T09:05:21;6.00;;;4.20;;
77085;SDS011;66014;53.134;18.006;2023-05-07T09:07:50;7.00;;;2.20;;
77085;SDS011;66014;53.134;18.006;2023-05-07T09:10:16;4.70;;;2.40;;
77085;SDS011;66014;53.134;18.006;2023-05-07T09:12:43;3.10;;;2.10;;
77085;SDS011;66014;53.134;18.006;2023-05-07T09:15:09;4.40;;;2.20;;
77085;SDS011;66014;53.134;18.006;2023-05-07T09:17:36;4.30;;;2.30;;
77085;SDS011;66014;53.134;18.006;2023-05-07T09:20:04;3.60;;;2.10;;
77085;SDS011;66014;53.134;18.006;2023-05-07T09:22:32;6.00;;;3.50;;
77085;SDS011;66014;53.134;18.006;2023-05-07T09:25:00;5.60;;;2.40;;
77085;SDS011;66014;53.134;18.006;2023-05-07T09:27:26;4.00;;;2.40;;
77085;SDS011;66014;53.134;18.006;2023-05-07T09:29:53;5.20;;;2.00;;
77085;SDS011;66014;53.134;18.006;2023-05-07T09:32:19;5.50;;;2.60;;
77085;SDS011;66014;53.134;18.006;2023-05-07T09:34:46;5.20;;;2.20;;
77085;SDS011;66014;53.134;18.006;2023-05-07T09:37:13;4.50;;;2.60;;
77085;SDS011;66014;53.134;18.006;2023-05-07T09:39:49;3.80;;;2.40;;
77085;SDS011;66014;53.134;18.006;2023-05-07T09:42:16;5.60;;;2.20;;
77085;SDS011;66014;53.134;18.006;2023-05-07T09:44:49;3.90;;;2.20;;
77085;SDS011;66014;53.134;18.006;2023-05-07T09:47:18;5.20;;;2.60;;
77085;SDS011;66014;53.134;18.006;2023-05-07T09:49:47;5.10;;;2.50;;
77085;SDS011;66014;53.134;18.006;2023-05-07T09:52:15;4.50;;;2.70;;
77085;SDS011;66014;53.134;18.006;2023-05-07T09:57:11;5.30;;;2.70;;
77085;SDS011;66014;53.134;18.006;2023-05-07T09:59:39;4.20;;;2.50;;
77085;SDS011;66014;53.134;18.006;2023-05-07T10:02:11;7.50;;;2.90;;
77085;SDS011;66014;53.134;18.006;2023-05-07T10:04:43;4.00;;;2.70;;
77085;SDS011;66014;53.134;18.006;2023-05-07T10:07:11;5.90;;;3.90;;
77085;SDS011;66014;53.134;18.006;2023-05-07T10:09:40;6.90;;;3.50;;
77085;SDS011;66014;53.134;18.006;2023-05-07T10:12:10;6.00;;;3.70;;
77085;SDS011;66014;53.134;18.006;2023-05-07T10:14:37;5.60;;;2.90;;
77085;SDS011;66014;53.134;18.006;2023-05-07T10:17:04;4.90;;;2.60;;
77085;SDS011;66014;53.134;18.006;2023-05-07T10:19:42;5.70;;;2.90;;
77085;SDS011;66014;53.134;18.006;2023-05-07T10:22:11;6.70;;;3.70;;
77085;SDS011;66014;53.134;18.006;2023-05-07T10:24:38;9.10;;;4.30;;
77085;SDS011;66014;53.134;18.006;2023-05-07T10:27:07;6.70;;;3.30;;
77085;SDS011;66014;53.134;18.006;2023-05-07T10:32:39;8.10;;;3.20;;
77085;SDS011;66014;53.134;18.006;2023-05-07T10:35:11;5.80;;;2.60;;
77085;SDS011;66014;53.134;18.006;2023-05-07T10:37:44;4.80;;;2.50;;
77085;SDS011;66014;53.134;18.006;2023-05-07T10:40:11;4.50;;;2.00;;
77085;SDS011;66014;53.134;18.006;2023-05-07T10:42:38;4.20;;;2.50;;
77085;SDS011;66014;53.134;18.006;2023-05-07T10:45:19;4.40;;;2.50;;
77085;SDS011;66014;53.134;18.006;2023-05-07T10:50:34;4.80;;;2.30;;
77085;SDS011;66014;53.134;18.006;2023-05-07T10:55:48;4.60;;;2.40;;
77085;SDS011;66014;53.134;18.006;2023-05-07T10:58:25;4.90;;;2.50;;
77085;SDS011;66014;53.134;18.006;2023-05-07T11:00:58;5.70;;;2.70;;
77085;SDS011;66014;53.134;18.006;2023-05-07T11:03:27;6.90;;;3.00;;
77085;SDS011;66014;53.134;18.006;2023-05-07T11:06:08;3.30;;;2.20;;
77085;SDS011;66014;53.134;18.006;2023-05-07T11:14:14;4.00;;;2.50;;
77085;SDS011;66014;53.134;18.006;2023-05-07T11:17:02;4.80;;;2.50;;
77085;SDS011;66014;53.134;18.006;2023-05-07T11:19:51;3.60;;;2.50;;
77085;SDS011;66014;53.134;18.006;2023-05-07T11:25:01;5.10;;;2.20;;
77085;SDS011;66014;53.134;18.006;2023-05-07T11:27:29;4.70;;;2.40;;
77085;SDS011;66014;53.134;18.006;2023-05-07T11:29:56;3.70;;;2.60;;
77085;SDS011;66014;53.134;18.006;2023-05-07T11:32:32;5.20;;;2.70;;
77085;SDS011;66014;53.134;18.006;2023-05-07T11:34:59;5.50;;;2.70;;
77085;SDS011;66014;53.134;18.006;2023-05-07T11:37:27;4.00;;;2.30;;
77085;SDS011;66014;53.134;18.006;2023-05-07T11:42:34;7.80;;;3.30;;
77085;SDS011;66014;53.134;18.006;2023-05-07T11:45:03;4.30;;;2.60;;
77085;SDS011;66014;53.134;18.006;2023-05-07T11:47:34;4.30;;;2.60;;
77085;SDS011;66014;53.134;18.006;2023-05-07T11:50:05;4.00;;;2.30;;
77085;SDS011;66014;53.134;18.006;2023-05-07T11:52:33;4.20;;;2.40;;
77085;SDS011;66014;53.134;18.006;2023-05-07T11:55:01;4.20;;;2.10;;
77085;SDS011;66014;53.134;18.006;2023-05-07T11:57:30;4.80;;;2.50;;
77085;SDS011;66014;53.134;18.006;2023-05-07T12:00:01;4.50;;;2.30;;
77085;SDS011;66014;53.134;18.006;2023-05-07T12:02:30;6.30;;;2.70;;
77085;SDS011;66014;53.134;18.006;2023-05-07T12:04:57;4.10;;;2.00;;
77085;SDS011;66014;53.134;18.006;2023-05-07T12:07:28;3.90;;;2.30;;
77085;SDS011;66014;53.134;18.006;2023-05-07T12:09:55;4.00;;;2.40;;
77085;SDS011;66014;53.134;18.006;2023-05-07T12:12:22;7.50;;;3.00;;
77085;SDS011;66014;53.134;18.006;2023-05-07T12:14:50;4.30;;;2.70;;
77085;SDS011;66014;53.134;18.006;2023-05-07T12:17:16;7.10;;;2.30;;
77085;SDS011;66014;53.134;18.006;2023-05-07T12:19:43;3.50;;;2.30;;
77085;SDS011;66014;53.134;18.006;2023-05-07T12:22:12;3.80;;;2.40;;
77085;SDS011;66014;53.134;18.006;2023-05-07T12:24:45;4.90;;;2.40;;
77085;SDS011;66014;53.134;18.006;2023-05-07T12:27:22;5.80;;;2.50;;
77085;SDS011;66014;53.134;18.006;2023-05-07T12:29:50;6.40;;;2.30;;
77085;SDS011;66014;53.134;18.006;2023-05-07T12:32:18;5.50;;;2.60;;
77085;SDS011;66014;53.134;18.006;2023-05-07T12:34:49;4.80;;;2.00;;
77085;SDS011;66014;53.134;18.006;2023-05-07T12:37:16;4.00;;;2.20;;
77085;SDS011;66014;53.134;18.006;2023-05-07T12:40:03;3.10;;;1.90;;
77085;SDS011;66014;53.134;18.006;2023-05-07T12:42:33;4.60;;;2.10;;
77085;SDS011;66014;53.134;18.006;2023-05-07T12:45:09;4.30;;;1.90;;
77085;SDS011;66014;53.134;18.006;2023-05-07T12:47:46;3.20;;;2.10;;
77085;SDS011;66014;53.134;18.006;2023-05-07T12:50:14;3.70;;;1.90;;
77085;SDS011;66014;53.134;18.006;2023-05-07T12:52:45;3.20;;;1.90;;
77085;SDS011;66014;53.134;18.006;2023-05-07T12:55:14;5.40;;;2.00;;
77085;SDS011;66014;53.134;18.006;2023-05-07T12:57:42;3.20;;;2.00;;
77085;SDS011;66014;53.134;18.006;2023-05-07T13:00:11;4.00;;;2.50;;
77085;SDS011;66014;53.134;18.006;2023-05-07T13:02:40;4.20;;;2.20;;
77085;SDS011;66014;53.134;18.006;2023-05-07T13:05:09;12.80;;;7.20;;
77085;SDS011;66014;53.134;18.006;2023-05-07T13:07:36;5.40;;;1.80;;
77085;SDS011;66014;53.134;18.006;2023-05-07T13:10:03;3.80;;;1.60;;
77085;SDS011;66014;53.134;18.006;2023-05-07T13:12:31;3.90;;;2.10;;
77085;SDS011;66014;53.134;18.006;2023-05-07T13:14:59;2.60;;;1.70;;
77085;SDS011;66014;53.134;18.006;2023-05-07T13:17:27;6.60;;;2.70;;
77085;SDS011;66014;53.134;18.006;2023-05-07T13:19:53;3.50;;;1.80;;
77085;SDS011;66014;53.134;18.006;2023-05-07T13:22:21;4.60;;;2.00;;
77085;SDS011;66014;53.134;18.006;2023-05-07T13:24:49;4.90;;;2.00;;
77085;SDS011;66014;53.134;18.006;2023-05-07T13:27:17;2.90;;;1.90;;
77085;SDS011;66014;53.134;18.006;2023-05-07T13:29:45;5.30;;;2.10;;
77085;SDS011;66014;53.134;18.006;2023-05-07T13:32:12;3.00;;;1.70;;
77085;SDS011;66014;53.134;18.006;2023-05-07T13:34:38;4.30;;;1.90;;
77085;SDS011;66014;53.134;18.006;2023-05-07T13:37:05;3.40;;;2.20;;
77085;SDS011;66014;53.134;18.006;2023-05-07T13:39:35;5.30;;;1.90;;
77085;SDS011;66014;53.134;18.006;2023-05-07T13:42:02;3.20;;;1.90;;
77085;SDS011;66014;53.134;18.006;2023-05-07T13:44:28;3.80;;;1.80;;
77085;SDS011;66014;53.134;18.006;2023-05-07T13:49:25;3.50;;;1.70;;
77085;SDS011;66014;53.134;18.006;2023-05-07T13:51:52;3.90;;;2.00;;
77085;SDS011;66014;53.134;18.006;2023-05-07T13:54:18;4.00;;;1.80;;
77085;SDS011;66014;53.134;18.006;2023-05-07T13:56:45;4.40;;;2.00;;
77085;SDS011;66014;53.134;18.006;2023-05-07T13:59:12;3.00;;;1.70;;
77085;SDS011;66014;53.134;18.006;2023-05-07T14:01:40;3.50;;;1.70;;
77085;SDS011;66014;53.134;18.006;2023-05-07T14:04:08;3.80;;;2.00;;
77085;SDS011;66014;53.134;18.006;2023-05-07T14:06:34;4.40;;;2.20;;
77085;SDS011;66014;53.134;18.006;2023-05-07T14:09:01;4.30;;;2.00;;
77085;SDS011;66014;53.134;18.006;2023-05-07T14:11:28;3.90;;;1.90;;
77085;SDS011;66014;53.134;18.006;2023-05-07T14:13:54;4.20;;;1.90;;
77085;SDS011;66014;53.134;18.006;2023-05-07T14:16:22;2.60;;;1.60;;
77085;SDS011;66014;53.134;18.006;2023-05-07T14:18:49;3.80;;;2.20;;
77085;SDS011;66014;53.134;18.006;2023-05-07T14:21:18;5.40;;;2.70;;
77085;SDS011;66014;53.134;18.006;2023-05-07T14:23:46;3.30;;;2.30;;
77085;SDS011;66014;53.134;18.006;2023-05-07T14:26:13;3.20;;;1.70;;
77085;SDS011;66014;53.134;18.006;2023-05-07T14:28:40;4.20;;;1.70;;
77085;SDS011;66014;53.134;18.006;2023-05-07T14:31:12;4.70;;;2.00;;
77085;SDS011;66014;53.134;18.006;2023-05-07T14:33:39;9.20;;;8.00;;
77085;SDS011;66014;53.134;18.006;2023-05-07T14:36:06;4.70;;;2.90;;
77085;SDS011;66014;53.134;18.006;2023-05-07T14:38:32;4.80;;;2.10;;
77085;SDS011;66014;53.134;18.006;2023-05-07T14:40:59;4.20;;;2.20;;
77085;SDS011;66014;53.134;18.006;2023-05-07T14:43:26;4.80;;;2.70;;
77085;SDS011;66014;53.134;18.006;2023-05-07T14:45:52;3.60;;;2.30;;
77085;SDS011;66014;53.134;18.006;2023-05-07T14:48:19;5.60;;;1.90;;
77085;SDS011;66014;53.134;18.006;2023-05-07T14:50:46;5.00;;;2.00;;